sensor_id;sensor_type;location;lat;lon;timestamp;temperature;humidity
6486;DHT22;3276;48.490;9.222;2023-06-14T00:00:07;13.70;1.00
6486;DHT22;3276;48.490;9.222;2023-06-14T00:02:33;13.70;1.00
6486;DHT22;3276;48.490;9.222;2023-06-14T00:04:58;13.60;1.00
6486;DHT22;3276;48.490;9.222;2023-06-14T00:07:34;13.60;1.00
6486;DHT22;3276;48.490;9.222;2023-06-14T00:10:00;13.60;1.00
6486;DHT22;3276;48.490;9.222;2023-06-14T00:12:25;13.50;1.00
6486;DHT22;3276;48.490;9.222;2023-06-14T00:14:51;13.40;1.00
6486;DHT22;3276;48.490;9.222;2023-06-14T00:17:17;13.30;1.00
6486;DHT22;3276;48.490;9.222;2023-06-14T00:19:42;13.40;1.00
6486;DHT22;3276;48.490;9.222;2023-06-14T00:22:08;13.30;1.00
6486;DHT22;3276;48.490;9.222;2023-06-14T00:24:34;13.20;1.00
6486;DHT22;3276;48.490;9.222;2023-06-14T00:27:00;13.10;1.00
6486;DHT22;3276;48.490;9.222;2023-06-14T00:29:26;13.10;1.00
6486;DHT22;3276;48.490;9.222;2023-06-14T00:31:51;13.10;1.00
6486;DHT22;3276;48.490;9.222;2023-06-14T00:34:17;13.00;1.00
6486;DHT22;3276;48.490;9.222;2023-06-14T00:36:42;13.00;1.00
6486;DHT22;3276;48.490;9.222;2023-06-14T00:39:08;13.00;1.00
6486;DHT22;3276;48.490;9.222;2023-06-14T00:41:35;12.90;1.00
6486;DHT22;3276;48.490;9.222;2023-06-14T00:44:00;12.90;1.00
6486;DHT22;3276;48.490;9.222;2023-06-14T00:46:26;12.80;1.00
6486;DHT22;3276;48.490;9.222;2023-06-14T00:48:52;12.80;1.00
6486;DHT22;3276;48.490;9.222;2023-06-14T00:51:18;12.80;1.00
6486;DHT22;3276;48.490;9.222;2023-06-14T00:53:44;12.70;1.00
6486;DHT22;3276;48.490;9.222;2023-06-14T00:56:13;12.70;1.00
6486;DHT22;3276;48.490;9.222;2023-06-14T00:58:40;12.60;1.00
6486;DHT22;3276;48.490;9.222;2023-06-14T01:01:06;12.60;1.00
6486;DHT22;3276;48.490;9.222;2023-06-14T01:03:32;12.60;1.00
6486;DHT22;3276;48.490;9.222;2023-06-14T01:08:51;12.60;1.00
6486;DHT22;3276;48.490;9.222;2023-06-14T01:11:26;12.50;1.00
6486;DHT22;3276;48.490;9.222;2023-06-14T01:13:54;12.50;1.00
6486;DHT22;3276;48.490;9.222;2023-06-14T01:16:21;12.50;1.00
6486;DHT22;3276;48.490;9.222;2023-06-14T01:18:47;12.50;1.00
6486;DHT22;3276;48.490;9.222;2023-06-14T01:21:22;12.40;1.00
6486;DHT22;3276;48.490;9.222;2023-06-14T01:23:47;12.40;1.00
6486;DHT22;3276;48.490;9.222;2023-06-14T01:26:21;12.30;1.00
6486;DHT22;3276;48.490;9.222;2023-06-14T01:28:48;12.30;1.00
6486;DHT22;3276;48.490;9.222;2023-06-14T01:31:17;12.30;1.00
6486;DHT22;3276;48.490;9.222;2023-06-14T01:33:44;12.20;1.00
6486;DHT22;3276;48.490;9.222;2023-06-14T01:36:10;12.20;1.00
6486;DHT22;3276;48.490;9.222;2023-06-14T01:38:37;12.20;1.00
6486;DHT22;3276;48.490;9.222;2023-06-14T01:41:04;12.10;1.00
6486;DHT22;3276;48.490;9.222;2023-06-14T01:43:31;12.10;1.00
6486;DHT22;3276;48.490;9.222;2023-06-14T01:45:57;12.10;1.00
6486;DHT22;3276;48.490;9.222;2023-06-14T01:48:24;12.10;1.00
6486;DHT22;3276;48.490;9.222;2023-06-14T01:50:50;12.00;1.00
6486;DHT22;3276;48.490;9.222;2023-06-14T01:53:16;12.00;1.00
6486;DHT22;3276;48.490;9.222;2023-06-14T01:55:41;11.90;1.00
6486;DHT22;3276;48.490;9.222;2023-06-14T01:58:09;11.90;1.00
6486;DHT22;3276;48.490;9.222;2023-06-14T02:00:35;11.90;1.00
6486;DHT22;3276;48.490;9.222;2023-06-14T02:03:01;11.80;1.00
6486;DHT22;3276;48.490;9.222;2023-06-14T02:05:26;11.80;1.00
6486;DHT22;3276;48.490;9.222;2023-06-14T02:07:52;11.80;1.00
6486;DHT22;3276;48.490;9.222;2023-06-14T02:10:19;11.80;1.00
6486;DHT22;3276;48.490;9.222;2023-06-14T02:12:44;11.70;1.00
6486;DHT22;3276;48.490;9.222;2023-06-14T02:15:11;11.70;1.00
6486;DHT22;3276;48.490;9.222;2023-06-14T02:17:42;11.70;1.00
6486;DHT22;3276;48.490;9.222;2023-06-14T02:20:08;11.70;1.00
6486;DHT22;3276;48.490;9.222;2023-06-14T02:22:34;11.70;1.00
6486;DHT22;3276;48.490;9.222;2023-06-14T02:25:00;11.70;1.00
6486;DHT22;3276;48.490;9.222;2023-06-14T02:27:26;11.60;1.00
6486;DHT22;3276;48.490;9.222;2023-06-14T02:29:51;11.60;1.00
6486;DHT22;3276;48.490;9.222;2023-06-14T02:32:17;11.60;1.00
6486;DHT22;3276;48.490;9.222;2023-06-14T02:34:42;11.60;1.00
6486;DHT22;3276;48.490;9.222;2023-06-14T02:37:08;11.60;1.00
6486;DHT22;3276;48.490;9.222;2023-06-14T02:39:34;11.60;1.00
6486;DHT22;3276;48.490;9.222;2023-06-14T02:42:00;11.50;1.00
6486;DHT22;3276;48.490;9.222;2023-06-14T02:44:26;11.50;1.00
6486;DHT22;3276;48.490;9.222;2023-06-14T02:46:53;11.50;1.00
6486;DHT22;3276;48.490;9.222;2023-06-14T02:49:19;11.40;1.00
6486;DHT22;3276;48.490;9.222;2023-06-14T02:51:45;11.40;1.00
6486;DHT22;3276;48.490;9.222;2023-06-14T02:54:10;11.40;1.00
6486;DHT22;3276;48.490;9.222;2023-06-14T02:56:36;11.30;1.00
6486;DHT22;3276;48.490;9.222;2023-06-14T02:59:02;11.30;1.00
6486;DHT22;3276;48.490;9.222;2023-06-14T03:01:27;11.30;1.00
6486;DHT22;3276;48.490;9.222;2023-06-14T03:04:02;11.20;1.00
6486;DHT22;3276;48.490;9.222;2023-06-14T03:06:31;11.20;1.00
6486;DHT22;3276;48.490;9.222;2023-06-14T03:08:57;11.20;1.00
6486;DHT22;3276;48.490;9.222;2023-06-14T03:11:29;11.20;1.00
6486;DHT22;3276;48.490;9.222;2023-06-14T03:13:55;11.20;1.00
6486;DHT22;3276;48.490;9.222;2023-06-14T03:16:21;11.20;1.00
6486;DHT22;3276;48.490;9.222;2023-06-14T03:18:52;11.10;1.00
6486;DHT22;3276;48.490;9.222;2023-06-14T03:21:19;11.10;1.00
6486;DHT22;3276;48.490;9.222;2023-06-14T03:23:45;11.20;1.70
6486;DHT22;3276;48.490;9.222;2023-06-14T03:26:12;11.10;1.30
6486;DHT22;3276;48.490;9.222;2023-06-14T03:28:41;11.10;1.00
6486;DHT22;3276;48.490;9.222;2023-06-14T03:31:07;11.00;1.00
6486;DHT22;3276;48.490;9.222;2023-06-14T03:33:34;11.10;1.00
6486;DHT22;3276;48.490;9.222;2023-06-14T03:35:59;11.00;1.00
6486;DHT22;3276;48.490;9.222;2023-06-14T03:38:25;11.00;1.00
6486;DHT22;3276;48.490;9.222;2023-06-14T03:40:51;11.00;1.40
6486;DHT22;3276;48.490;9.222;2023-06-14T03:43:16;11.00;1.40
6486;DHT22;3276;48.490;9.222;2023-06-14T03:45:42;11.00;1.40
6486;DHT22;3276;48.490;9.222;2023-06-14T03:48:09;11.00;1.40
6486;DHT22;3276;48.490;9.222;2023-06-14T03:50:35;11.00;1.40
6486;DHT22;3276;48.490;9.222;2023-06-14T03:53:03;11.00;1.40
6486;DHT22;3276;48.490;9.222;2023-06-14T03:55:29;11.00;1.00
6486;DHT22;3276;48.490;9.222;2023-06-14T03:57:56;11.00;1.30
6486;DHT22;3276;48.490;9.222;2023-06-14T04:00:22;11.00;1.00
6486;DHT22;3276;48.490;9.222;2023-06-14T04:02:48;11.10;1.20
6486;DHT22;3276;48.490;9.222;2023-06-14T04:05:14;11.10;1.00
6486;DHT22;3276;48.490;9.222;2023-06-14T04:07:44;11.10;1.40
6486;DHT22;3276;48.490;9.222;2023-06-14T04:10:13;11.20;1.00
6486;DHT22;3276;48.490;9.222;2023-06-14T04:12:39;11.20;1.20
6486;DHT22;3276;48.490;9.222;2023-06-14T04:15:05;11.20;1.50
6486;DHT22;3276;48.490;9.222;2023-06-14T04:17:32;11.20;1.50
6486;DHT22;3276;48.490;9.222;2023-06-14T04:19:59;11.20;1.00
6486;DHT22;3276;48.490;9.222;2023-06-14T04:22:25;11.30;1.00
6486;DHT22;3276;48.490;9.222;2023-06-14T04:24:54;11.30;1.00
6486;DHT22;3276;48.490;9.222;2023-06-14T04:27:22;11.40;1.00
6486;DHT22;3276;48.490;9.222;2023-06-14T04:29:54;11.40;1.00
6486;DHT22;3276;48.490;9.222;2023-06-14T04:32:28;11.50;1.00
6486;DHT22;3276;48.490;9.222;2023-06-14T04:35:07;11.50;1.00
6486;DHT22;3276;48.490;9.222;2023-06-14T04:37:33;11.60;1.00
6486;DHT22;3276;48.490;9.222;2023-06-14T04:39:59;11.70;1.00
6486;DHT22;3276;48.490;9.222;2023-06-14T04:42:24;11.80;1.00
6486;DHT22;3276;48.490;9.222;2023-06-14T04:44:51;11.70;1.00
6486;DHT22;3276;48.490;9.222;2023-06-14T04:47:20;11.90;1.00
6486;DHT22;3276;48.490;9.222;2023-06-14T04:49:46;11.90;1.00
6486;DHT22;3276;48.490;9.222;2023-06-14T04:52:12;12.00;1.00
6486;DHT22;3276;48.490;9.222;2023-06-14T04:54:39;12.10;1.00
6486;DHT22;3276;48.490;9.222;2023-06-14T04:57:06;12.10;1.00
6486;DHT22;3276;48.490;9.222;2023-06-14T04:59:32;12.20;1.00
6486;DHT22;3276;48.490;9.222;2023-06-14T05:01:58;12.40;1.00
6486;DHT22;3276;48.490;9.222;2023-06-14T05:04:25;12.50;1.00
6486;DHT22;3276;48.490;9.222;2023-06-14T05:06:52;12.50;1.00
6486;DHT22;3276;48.490;9.222;2023-06-14T05:09:20;12.60;1.00
6486;DHT22;3276;48.490;9.222;2023-06-14T05:11:46;12.70;1.00
6486;DHT22;3276;48.490;9.222;2023-06-14T05:14:13;12.90;1.00
6486;DHT22;3276;48.490;9.222;2023-06-14T05:16:39;13.00;1.00
6486;DHT22;3276;48.490;9.222;2023-06-14T05:19:05;13.20;1.00
6486;DHT22;3276;48.490;9.222;2023-06-14T05:21:31;13.30;1.00
6486;DHT22;3276;48.490;9.222;2023-06-14T05:23:58;13.50;1.00
6486;DHT22;3276;48.490;9.222;2023-06-14T05:26:24;13.60;1.00
6486;DHT22;3276;48.490;9.222;2023-06-14T05:28:56;13.70;1.00
6486;DHT22;3276;48.490;9.222;2023-06-14T05:31:23;13.80;1.00
6486;DHT22;3276;48.490;9.222;2023-06-14T05:33:49;13.90;1.00
6486;DHT22;3276;48.490;9.222;2023-06-14T05:36:15;14.10;1.00
6486;DHT22;3276;48.490;9.222;2023-06-14T05:38:40;14.20;1.00
6486;DHT22;3276;48.490;9.222;2023-06-14T05:41:06;14.50;1.00
6486;DHT22;3276;48.490;9.222;2023-06-14T05:43:32;15.40;1.00
6486;DHT22;3276;48.490;9.222;2023-06-14T05:45:57;16.70;1.00
6486;DHT22;3276;48.490;9.222;2023-06-14T05:48:23;17.00;1.00
6486;DHT22;3276;48.490;9.222;2023-06-14T05:50:48;17.10;1.00
6486;DHT22;3276;48.490;9.222;2023-06-14T05:53:14;17.60;1.00
6486;DHT22;3276;48.490;9.222;2023-06-14T05:55:39;19.70;1.00
6486;DHT22;3276;48.490;9.222;2023-06-14T05:58:05;21.60;1.00
6486;DHT22;3276;48.490;9.222;2023-06-14T06:00:31;22.80;1.00
6486;DHT22;3276;48.490;9.222;2023-06-14T06:02:57;23.90;1.00
6486;DHT22;3276;48.490;9.222;2023-06-14T06:05:23;24.60;1.00
6486;DHT22;3276;48.490;9.222;2023-06-14T06:07:49;26.40;1.00
6486;DHT22;3276;48.490;9.222;2023-06-14T06:10:15;28.10;1.00
6486;DHT22;3276;48.490;9.222;2023-06-14T06:12:41;30.60;1.00
6486;DHT22;3276;48.490;9.222;2023-06-14T06:15:08;32.30;1.00
6486;DHT22;3276;48.490;9.222;2023-06-14T06:17:37;32.40;1.00
6486;DHT22;3276;48.490;9.222;2023-06-14T06:20:03;33.10;1.00
6486;DHT22;3276;48.490;9.222;2023-06-14T06:22:30;34.80;1.00
6486;DHT22;3276;48.490;9.222;2023-06-14T06:24:56;35.50;1.00
6486;DHT22;3276;48.490;9.222;2023-06-14T06:27:21;35.30;1.00
6486;DHT22;3276;48.490;9.222;2023-06-14T06:29:47;35.60;1.00
6486;DHT22;3276;48.490;9.222;2023-06-14T06:32:14;36.30;1.00
6486;DHT22;3276;48.490;9.222;2023-06-14T06:34:40;37.10;1.00
6486;DHT22;3276;48.490;9.222;2023-06-14T06:37:05;37.30;1.00
6486;DHT22;3276;48.490;9.222;2023-06-14T06:39:31;37.00;1.00
6486;DHT22;3276;48.490;9.222;2023-06-14T06:41:57;37.30;1.00
6486;DHT22;3276;48.490;9.222;2023-06-14T06:44:23;37.10;1.00
6486;DHT22;3276;48.490;9.222;2023-06-14T06:46:48;37.40;1.00
6486;DHT22;3276;48.490;9.222;2023-06-14T06:49:14;37.10;1.00
6486;DHT22;3276;48.490;9.222;2023-06-14T06:51:43;37.00;1.00
6486;DHT22;3276;48.490;9.222;2023-06-14T06:54:10;36.70;1.00
6486;DHT22;3276;48.490;9.222;2023-06-14T06:56:36;37.50;1.00
6486;DHT22;3276;48.490;9.222;2023-06-14T06:59:01;37.50;1.00
6486;DHT22;3276;48.490;9.222;2023-06-14T07:01:27;37.90;1.00
6486;DHT22;3276;48.490;9.222;2023-06-14T07:03:57;37.30;1.00
6486;DHT22;3276;48.490;9.222;2023-06-14T07:06:23;38.00;1.00
6486;DHT22;3276;48.490;9.222;2023-06-14T07:08:52;36.80;1.00
6486;DHT22;3276;48.490;9.222;2023-06-14T07:11:18;37.30;1.00
6486;DHT22;3276;48.490;9.222;2023-06-14T07:13:43;37.70;1.00
6486;DHT22;3276;48.490;9.222;2023-06-14T07:16:09;37.40;1.00
6486;DHT22;3276;48.490;9.222;2023-06-14T07:18:34;37.50;1.00
6486;DHT22;3276;48.490;9.222;2023-06-14T07:21:01;38.60;1.00
6486;DHT22;3276;48.490;9.222;2023-06-14T07:23:26;38.40;1.00
6486;DHT22;3276;48.490;9.222;2023-06-14T07:25:52;37.60;1.00
6486;DHT22;3276;48.490;9.222;2023-06-14T07:28:18;38.20;1.00
6486;DHT22;3276;48.490;9.222;2023-06-14T07:30:44;37.60;1.00
6486;DHT22;3276;48.490;9.222;2023-06-14T07:33:09;36.80;1.00
6486;DHT22;3276;48.490;9.222;2023-06-14T07:35:36;37.00;1.00
6486;DHT22;3276;48.490;9.222;2023-06-14T07:38:02;37.00;1.00
6486;DHT22;3276;48.490;9.222;2023-06-14T07:40:28;36.10;1.00
6486;DHT22;3276;48.490;9.222;2023-06-14T07:42:53;34.90;1.00
6486;DHT22;3276;48.490;9.222;2023-06-14T07:45:20;34.80;1.00
6486;DHT22;3276;48.490;9.222;2023-06-14T07:47:45;36.90;1.00
6486;DHT22;3276;48.490;9.222;2023-06-14T07:50:11;37.00;1.00
6486;DHT22;3276;48.490;9.222;2023-06-14T07:52:38;36.10;1.00
6486;DHT22;3276;48.490;9.222;2023-06-14T07:55:04;36.50;1.00
6486;DHT22;3276;48.490;9.222;2023-06-14T07:57:30;37.10;1.00
6486;DHT22;3276;48.490;9.222;2023-06-14T07:59:56;36.80;1.00
6486;DHT22;3276;48.490;9.222;2023-06-14T08:02:21;36.80;1.00
6486;DHT22;3276;48.490;9.222;2023-06-14T08:04:47;36.30;1.00
6486;DHT22;3276;48.490;9.222;2023-06-14T08:07:14;36.40;1.00
6486;DHT22;3276;48.490;9.222;2023-06-14T08:09:40;35.50;1.00
6486;DHT22;3276;48.490;9.222;2023-06-14T08:12:06;36.00;1.00
6486;DHT22;3276;48.490;9.222;2023-06-14T08:14:35;36.80;1.00
6486;DHT22;3276;48.490;9.222;2023-06-14T08:17:01;36.50;1.00
6486;DHT22;3276;48.490;9.222;2023-06-14T08:19:27;37.70;1.00
6486;DHT22;3276;48.490;9.222;2023-06-14T08:21:52;38.10;1.00
6486;DHT22;3276;48.490;9.222;2023-06-14T08:24:21;38.40;1.00
6486;DHT22;3276;48.490;9.222;2023-06-14T08:26:50;37.50;1.00
6486;DHT22;3276;48.490;9.222;2023-06-14T08:29:15;37.30;1.00
6486;DHT22;3276;48.490;9.222;2023-06-14T08:31:41;36.50;1.00
6486;DHT22;3276;48.490;9.222;2023-06-14T08:34:07;35.20;1.00
6486;DHT22;3276;48.490;9.222;2023-06-14T08:36:32;34.80;1.00
6486;DHT22;3276;48.490;9.222;2023-06-14T08:38:58;35.00;1.00
6486;DHT22;3276;48.490;9.222;2023-06-14T08:41:23;35.40;1.00
6486;DHT22;3276;48.490;9.222;2023-06-14T08:43:52;35.50;1.00
6486;DHT22;3276;48.490;9.222;2023-06-14T08:46:18;35.60;1.00
6486;DHT22;3276;48.490;9.222;2023-06-14T08:48:51;35.50;1.00
6486;DHT22;3276;48.490;9.222;2023-06-14T08:51:20;36.60;1.00
6486;DHT22;3276;48.490;9.222;2023-06-14T08:53:52;36.70;1.00
6486;DHT22;3276;48.490;9.222;2023-06-14T08:56:18;36.40;1.00
6486;DHT22;3276;48.490;9.222;2023-06-14T08:58:46;36.90;1.00
6486;DHT22;3276;48.490;9.222;2023-06-14T09:01:13;36.30;1.00
6486;DHT22;3276;48.490;9.222;2023-06-14T09:03:41;34.60;1.00
6486;DHT22;3276;48.490;9.222;2023-06-14T09:06:07;34.50;1.00
6486;DHT22;3276;48.490;9.222;2023-06-14T09:08:34;33.70;1.00
6486;DHT22;3276;48.490;9.222;2023-06-14T09:11:02;33.70;1.00
6486;DHT22;3276;48.490;9.222;2023-06-14T09:13:28;33.30;1.00
6486;DHT22;3276;48.490;9.222;2023-06-14T09:15:54;32.80;1.00
6486;DHT22;3276;48.490;9.222;2023-06-14T09:18:20;32.70;1.00
6486;DHT22;3276;48.490;9.222;2023-06-14T09:20:45;30.40;1.00
6486;DHT22;3276;48.490;9.222;2023-06-14T09:23:13;28.10;1.00
6486;DHT22;3276;48.490;9.222;2023-06-14T09:25:43;26.50;1.00
6486;DHT22;3276;48.490;9.222;2023-06-14T09:28:11;25.60;1.00
6486;DHT22;3276;48.490;9.222;2023-06-14T09:30:40;25.00;1.00
6486;DHT22;3276;48.490;9.222;2023-06-14T09:33:06;24.60;1.00
6486;DHT22;3276;48.490;9.222;2023-06-14T09:35:32;24.20;1.00
6486;DHT22;3276;48.490;9.222;2023-06-14T09:37:58;23.90;1.00
6486;DHT22;3276;48.490;9.222;2023-06-14T09:40:23;23.90;1.00
6486;DHT22;3276;48.490;9.222;2023-06-14T09:42:49;23.80;1.00
6486;DHT22;3276;48.490;9.222;2023-06-14T09:45:15;23.60;1.00
6486;DHT22;3276;48.490;9.222;2023-06-14T09:47:49;23.70;1.00
6486;DHT22;3276;48.490;9.222;2023-06-14T09:50:14;23.70;1.00
6486;DHT22;3276;48.490;9.222;2023-06-14T09:52:43;23.70;1.00
6486;DHT22;3276;48.490;9.222;2023-06-14T09:55:12;23.70;1.00
6486;DHT22;3276;48.490;9.222;2023-06-14T09:57:41;23.70;1.00
6486;DHT22;3276;48.490;9.222;2023-06-14T10:00:09;24.00;1.00
6486;DHT22;3276;48.490;9.222;2023-06-14T10:02:37;24.00;1.00
6486;DHT22;3276;48.490;9.222;2023-06-14T10:05:08;23.90;1.00
6486;DHT22;3276;48.490;9.222;2023-06-14T10:07:57;23.90;1.00
6486;DHT22;3276;48.490;9.222;2023-06-14T10:10:24;23.90;1.00
6486;DHT22;3276;48.490;9.222;2023-06-14T10:12:51;23.80;1.00
6486;DHT22;3276;48.490;9.222;2023-06-14T10:15:23;23.70;1.00
6486;DHT22;3276;48.490;9.222;2023-06-14T10:18:03;23.80;1.00
6486;DHT22;3276;48.490;9.222;2023-06-14T10:21:05;23.90;1.00
6486;DHT22;3276;48.490;9.222;2023-06-14T10:23:37;24.10;1.00
6486;DHT22;3276;48.490;9.222;2023-06-14T10:26:03;24.40;1.00
6486;DHT22;3276;48.490;9.222;2023-06-14T10:28:30;24.60;1.00
6486;DHT22;3276;48.490;9.222;2023-06-14T10:31:11;25.00;1.00
6486;DHT22;3276;48.490;9.222;2023-06-14T10:33:56;25.00;1.00
6486;DHT22;3276;48.490;9.222;2023-06-14T10:39:16;25.10;1.00
6486;DHT22;3276;48.490;9.222;2023-06-14T10:41:54;25.10;1.00
6486;DHT22;3276;48.490;9.222;2023-06-14T10:46:54;25.30;1.00
6486;DHT22;3276;48.490;9.222;2023-06-14T10:52:12;24.90;1.00
6486;DHT22;3276;48.490;9.222;2023-06-14T10:55:05;25.10;1.00
6486;DHT22;3276;48.490;9.222;2023-06-14T10:57:43;25.30;1.00
6486;DHT22;3276;48.490;9.222;2023-06-14T11:00:11;25.50;1.00
6486;DHT22;3276;48.490;9.222;2023-06-14T11:05:26;25.00;1.00
6486;DHT22;3276;48.490;9.222;2023-06-14T11:08:29;25.30;1.00
6486;DHT22;3276;48.490;9.222;2023-06-14T11:11:06;25.60;1.00
6486;DHT22;3276;48.490;9.222;2023-06-14T11:13:31;25.50;1.00
6486;DHT22;3276;48.490;9.222;2023-06-14T11:15:57;25.80;1.00
6486;DHT22;3276;48.490;9.222;2023-06-14T11:18:24;25.90;1.00
6486;DHT22;3276;48.490;9.222;2023-06-14T11:20:50;26.10;1.00
6486;DHT22;3276;48.490;9.222;2023-06-14T11:23:16;26.30;1.00
6486;DHT22;3276;48.490;9.222;2023-06-14T11:25:41;26.10;1.00
6486;DHT22;3276;48.490;9.222;2023-06-14T11:28:07;25.90;1.00
6486;DHT22;3276;48.490;9.222;2023-06-14T11:30:33;25.90;1.00
6486;DHT22;3276;48.490;9.222;2023-06-14T11:32:58;25.90;1.00
6486;DHT22;3276;48.490;9.222;2023-06-14T11:35:25;25.90;1.00
6486;DHT22;3276;48.490;9.222;2023-06-14T11:37:57;25.80;1.00
6486;DHT22;3276;48.490;9.222;2023-06-14T11:40:26;25.70;1.00
6486;DHT22;3276;48.490;9.222;2023-06-14T11:43:02;25.70;1.00
6486;DHT22;3276;48.490;9.222;2023-06-14T11:45:28;25.90;1.00
6486;DHT22;3276;48.490;9.222;2023-06-14T11:47:55;25.90;1.00
6486;DHT22;3276;48.490;9.222;2023-06-14T11:50:24;25.70;1.00
6486;DHT22;3276;48.490;9.222;2023-06-14T11:52:54;25.70;1.00
6486;DHT22;3276;48.490;9.222;2023-06-14T11:55:24;25.80;1.00
6486;DHT22;3276;48.490;9.222;2023-06-14T11:57:50;26.20;1.00
6486;DHT22;3276;48.490;9.222;2023-06-14T12:00:16;26.50;1.00
6486;DHT22;3276;48.490;9.222;2023-06-14T12:02:43;26.70;1.00
6486;DHT22;3276;48.490;9.222;2023-06-14T12:05:20;26.60;1.00
6486;DHT22;3276;48.490;9.222;2023-06-14T12:07:46;26.50;1.00
6486;DHT22;3276;48.490;9.222;2023-06-14T12:10:14;26.30;1.00
6486;DHT22;3276;48.490;9.222;2023-06-14T12:12:40;26.20;1.00
6486;DHT22;3276;48.490;9.222;2023-06-14T12:15:09;26.10;1.00
6486;DHT22;3276;48.490;9.222;2023-06-14T12:17:37;26.30;1.00
6486;DHT22;3276;48.490;9.222;2023-06-14T12:20:12;26.10;1.00
6486;DHT22;3276;48.490;9.222;2023-06-14T12:22:46;26.00;1.00
6486;DHT22;3276;48.490;9.222;2023-06-14T12:25:32;26.00;1.00
6486;DHT22;3276;48.490;9.222;2023-06-14T12:30:31;26.00;1.00
6486;DHT22;3276;48.490;9.222;2023-06-14T12:32:57;26.10;1.00
6486;DHT22;3276;48.490;9.222;2023-06-14T12:35:23;26.10;1.00
6486;DHT22;3276;48.490;9.222;2023-06-14T12:37:48;26.00;1.00
6486;DHT22;3276;48.490;9.222;2023-06-14T12:40:14;26.00;1.00
6486;DHT22;3276;48.490;9.222;2023-06-14T12:42:41;26.00;1.00
6486;DHT22;3276;48.490;9.222;2023-06-14T12:45:07;26.10;1.00
6486;DHT22;3276;48.490;9.222;2023-06-14T12:47:33;26.10;1.00
6486;DHT22;3276;48.490;9.222;2023-06-14T12:49:58;26.10;1.00
6486;DHT22;3276;48.490;9.222;2023-06-14T12:52:24;26.00;1.00
6486;DHT22;3276;48.490;9.222;2023-06-14T12:54:50;26.30;1.00
6486;DHT22;3276;48.490;9.222;2023-06-14T12:57:15;26.40;1.00
6486;DHT22;3276;48.490;9.222;2023-06-14T12:59:41;26.40;1.00
6486;DHT22;3276;48.490;9.222;2023-06-14T13:02:17;26.30;1.00
6486;DHT22;3276;48.490;9.222;2023-06-14T13:04:43;26.40;1.00
6486;DHT22;3276;48.490;9.222;2023-06-14T13:07:10;26.50;1.00
6486;DHT22;3276;48.490;9.222;2023-06-14T13:09:40;26.70;1.00
6486;DHT22;3276;48.490;9.222;2023-06-14T13:12:07;26.60;1.00
6486;DHT22;3276;48.490;9.222;2023-06-14T13:14:32;26.60;1.00
6486;DHT22;3276;48.490;9.222;2023-06-14T13:16:58;26.50;1.00
6486;DHT22;3276;48.490;9.222;2023-06-14T13:19:23;26.50;1.00
6486;DHT22;3276;48.490;9.222;2023-06-14T13:21:49;26.60;1.00
6486;DHT22;3276;48.490;9.222;2023-06-14T13:24:15;26.60;1.00
6486;DHT22;3276;48.490;9.222;2023-06-14T13:26:40;26.70;1.00
6486;DHT22;3276;48.490;9.222;2023-06-14T13:29:06;26.80;1.00
6486;DHT22;3276;48.490;9.222;2023-06-14T13:31:31;26.90;1.00
6486;DHT22;3276;48.490;9.222;2023-06-14T13:33:57;26.80;1.00
6486;DHT22;3276;48.490;9.222;2023-06-14T13:36:23;26.70;1.00
6486;DHT22;3276;48.490;9.222;2023-06-14T13:38:48;26.60;1.00
6486;DHT22;3276;48.490;9.222;2023-06-14T13:41:14;26.50;1.00
6486;DHT22;3276;48.490;9.222;2023-06-14T13:43:40;26.20;1.00
6486;DHT22;3276;48.490;9.222;2023-06-14T13:46:06;26.20;1.00
6486;DHT22;3276;48.490;9.222;2023-06-14T13:48:31;26.20;1.00
6486;DHT22;3276;48.490;9.222;2023-06-14T13:50:59;26.30;1.00
6486;DHT22;3276;48.490;9.222;2023-06-14T13:53:25;26.30;1.00
6486;DHT22;3276;48.490;9.222;2023-06-14T13:55:50;26.30;1.00
6486;DHT22;3276;48.490;9.222;2023-06-14T13:58:18;26.30;1.00
6486;DHT22;3276;48.490;9.222;2023-06-14T14:00:44;26.30;1.00
6486;DHT22;3276;48.490;9.222;2023-06-14T14:03:09;26.20;1.00
6486;DHT22;3276;48.490;9.222;2023-06-14T14:05:35;26.30;1.00
6486;DHT22;3276;48.490;9.222;2023-06-14T14:08:01;26.30;1.00
6486;DHT22;3276;48.490;9.222;2023-06-14T14:10:27;26.20;1.00
6486;DHT22;3276;48.490;9.222;2023-06-14T14:12:52;26.20;1.00
6486;DHT22;3276;48.490;9.222;2023-06-14T14:15:20;26.20;1.00
6486;DHT22;3276;48.490;9.222;2023-06-14T14:17:45;26.10;1.00
6486;DHT22;3276;48.490;9.222;2023-06-14T14:22:41;25.90;1.00
6486;DHT22;3276;48.490;9.222;2023-06-14T14:25:07;25.80;1.00
6486;DHT22;3276;48.490;9.222;2023-06-14T14:27:32;25.80;1.00
6486;DHT22;3276;48.490;9.222;2023-06-14T14:29:58;25.70;1.00
6486;DHT22;3276;48.490;9.222;2023-06-14T14:32:23;25.60;1.00
6486;DHT22;3276;48.490;9.222;2023-06-14T14:34:49;25.60;1.00
6486;DHT22;3276;48.490;9.222;2023-06-14T14:37:14;25.70;1.00
6486;DHT22;3276;48.490;9.222;2023-06-14T14:39:40;25.90;1.00
6486;DHT22;3276;48.490;9.222;2023-06-14T14:42:06;26.20;1.00
6486;DHT22;3276;48.490;9.222;2023-06-14T14:44:33;26.40;1.00
6486;DHT22;3276;48.490;9.222;2023-06-14T14:46:58;26.40;1.00
6486;DHT22;3276;48.490;9.222;2023-06-14T14:49:24;26.60;1.00
6486;DHT22;3276;48.490;9.222;2023-06-14T14:51:49;26.70;1.00
6486;DHT22;3276;48.490;9.222;2023-06-14T14:54:15;26.70;1.00
6486;DHT22;3276;48.490;9.222;2023-06-14T14:56:40;26.90;1.00
6486;DHT22;3276;48.490;9.222;2023-06-14T14:59:06;26.80;1.00
6486;DHT22;3276;48.490;9.222;2023-06-14T15:01:31;26.80;1.00
6486;DHT22;3276;48.490;9.222;2023-06-14T15:03:57;26.70;1.00
6486;DHT22;3276;48.490;9.222;2023-06-14T15:06:22;26.60;1.00
6486;DHT22;3276;48.490;9.222;2023-06-14T15:08:48;26.30;1.00
6486;DHT22;3276;48.490;9.222;2023-06-14T15:11:13;26.20;1.00
6486;DHT22;3276;48.490;9.222;2023-06-14T15:13:39;26.20;1.00
6486;DHT22;3276;48.490;9.222;2023-06-14T15:16:04;26.20;1.00
6486;DHT22;3276;48.490;9.222;2023-06-14T15:18:30;26.20;1.00
6486;DHT22;3276;48.490;9.222;2023-06-14T15:20:55;26.20;1.00
6486;DHT22;3276;48.490;9.222;2023-06-14T15:23:21;26.10;1.00
6486;DHT22;3276;48.490;9.222;2023-06-14T15:25:47;26.20;1.00
6486;DHT22;3276;48.490;9.222;2023-06-14T15:28:13;26.20;1.00
6486;DHT22;3276;48.490;9.222;2023-06-14T15:30:39;26.00;1.00
6486;DHT22;3276;48.490;9.222;2023-06-14T15:33:04;25.80;1.00
6486;DHT22;3276;48.490;9.222;2023-06-14T15:35:30;25.80;1.00
6486;DHT22;3276;48.490;9.222;2023-06-14T15:37:56;25.70;1.00
6486;DHT22;3276;48.490;9.222;2023-06-14T15:40:21;25.80;1.00
6486;DHT22;3276;48.490;9.222;2023-06-14T15:42:47;25.60;1.00
6486;DHT22;3276;48.490;9.222;2023-06-14T15:45:12;25.60;1.00
6486;DHT22;3276;48.490;9.222;2023-06-14T15:47:38;25.50;1.00
6486;DHT22;3276;48.490;9.222;2023-06-14T15:50:05;25.50;1.00
6486;DHT22;3276;48.490;9.222;2023-06-14T15:52:33;25.30;1.00
6486;DHT22;3276;48.490;9.222;2023-06-14T15:54:58;25.40;1.00
6486;DHT22;3276;48.490;9.222;2023-06-14T15:57:24;25.40;1.00
6486;DHT22;3276;48.490;9.222;2023-06-14T15:59:49;25.30;1.00
6486;DHT22;3276;48.490;9.222;2023-06-14T16:02:15;25.20;1.00
6486;DHT22;3276;48.490;9.222;2023-06-14T16:04:41;25.10;1.00
6486;DHT22;3276;48.490;9.222;2023-06-14T16:07:06;25.10;1.00
6486;DHT22;3276;48.490;9.222;2023-06-14T16:09:32;25.10;1.00
6486;DHT22;3276;48.490;9.222;2023-06-14T16:11:57;25.10;1.00
6486;DHT22;3276;48.490;9.222;2023-06-14T16:14:23;25.10;1.00
6486;DHT22;3276;48.490;9.222;2023-06-14T16:16:49;24.90;1.00
6486;DHT22;3276;48.490;9.222;2023-06-14T16:19:14;24.80;1.00
6486;DHT22;3276;48.490;9.222;2023-06-14T16:21:40;24.80;1.00
6486;DHT22;3276;48.490;9.222;2023-06-14T16:24:06;24.90;1.00
6486;DHT22;3276;48.490;9.222;2023-06-14T16:26:31;25.00;1.00
6486;DHT22;3276;48.490;9.222;2023-06-14T16:28:57;25.00;1.00
6486;DHT22;3276;48.490;9.222;2023-06-14T16:31:26;24.90;1.00
6486;DHT22;3276;48.490;9.222;2023-06-14T16:33:51;24.90;1.00